Terminal Aerodrome Forecast
Issued by NWS Louisville, KY

Home | Current Version | Previous Version | Text Only | Print | Product List | Glossary On
Versions: 1 2 3 4 5 6 7 8 9 10 11 12 13 14
000
FTUS43 KLMK 282300
TAFLEX
TAF
KLEX 282320Z 2900/2924 VRB04KT P6SM SKC
     FM291200 16008KT P6SM FEW150
     FM291600 19012G20KT P6SM BKN120=

USA.gov is the U.S. government's official web portal to all federal, state and local government web resources and services.